sensor_id;sensor_type;location;lat;lon;timestamp;P1;durP1;ratioP1;P2;durP2;ratioP2
12567;SDS011;6349;50.904;6.136;2023-09-08T00:00:48;4.80;;;4.30;;
12567;SDS011;6349;50.904;6.136;2023-09-08T00:02:49;4.75;;;4.15;;
12567;SDS011;6349;50.904;6.136;2023-09-08T00:04:50;5.15;;;4.20;;
12567;SDS011;6349;50.904;6.136;2023-09-08T00:06:50;4.22;;;3.92;;
12567;SDS011;6349;50.904;6.136;2023-09-08T00:08:51;5.25;;;4.30;;
12567;SDS011;6349;50.904;6.136;2023-09-08T00:10:51;5.05;;;4.30;;
12567;SDS011;6349;50.904;6.136;2023-09-08T00:12:52;5.57;;;4.85;;
12567;SDS011;6349;50.904;6.136;2023-09-08T00:14:52;5.88;;;4.30;;
12567;SDS011;6349;50.904;6.136;2023-09-08T00:16:53;5.55;;;4.70;;
12567;SDS011;6349;50.904;6.136;2023-09-08T00:18:57;5.80;;;4.88;;
12567;SDS011;6349;50.904;6.136;2023-09-08T00:20:58;6.40;;;5.53;;
12567;SDS011;6349;50.904;6.136;2023-09-08T00:22:59;4.90;;;4.45;;
12567;SDS011;6349;50.904;6.136;2023-09-08T00:24:59;5.25;;;4.75;;
12567;SDS011;6349;50.904;6.136;2023-09-08T00:27:00;5.43;;;4.90;;
12567;SDS011;6349;50.904;6.136;2023-09-08T00:29:01;5.95;;;4.80;;
12567;SDS011;6349;50.904;6.136;2023-09-08T00:31:01;5.78;;;5.15;;
12567;SDS011;6349;50.904;6.136;2023-09-08T00:33:02;9.25;;;5.00;;
12567;SDS011;6349;50.904;6.136;2023-09-08T00:35:05;7.78;;;5.40;;
12567;SDS011;6349;50.904;6.136;2023-09-08T00:37:06;7.22;;;5.28;;
12567;SDS011;6349;50.904;6.136;2023-09-08T00:39:08;6.05;;;5.45;;
12567;SDS011;6349;50.904;6.136;2023-09-08T00:41:08;5.70;;;5.20;;
12567;SDS011;6349;50.904;6.136;2023-09-08T00:43:09;6.75;;;5.72;;
12567;SDS011;6349;50.904;6.136;2023-09-08T00:45:09;6.18;;;5.43;;
12567;SDS011;6349;50.904;6.136;2023-09-08T00:47:10;7.43;;;5.38;;
12567;SDS011;6349;50.904;6.136;2023-09-08T00:49:11;8.75;;;5.50;;
12567;SDS011;6349;50.904;6.136;2023-09-08T00:51:12;6.47;;;5.30;;
12567;SDS011;6349;50.904;6.136;2023-09-08T00:53:12;5.80;;;5.20;;
12567;SDS011;6349;50.904;6.136;2023-09-08T00:55:13;7.20;;;5.22;;
12567;SDS011;6349;50.904;6.136;2023-09-08T00:57:14;5.63;;;5.10;;
12567;SDS011;6349;50.904;6.136;2023-09-08T00:59:15;6.05;;;5.38;;
12567;SDS011;6349;50.904;6.136;2023-09-08T01:01:16;6.20;;;5.05;;
12567;SDS011;6349;50.904;6.136;2023-09-08T01:03:17;6.68;;;5.10;;
12567;SDS011;6349;50.904;6.136;2023-09-08T01:05:18;5.85;;;4.93;;
12567;SDS011;6349;50.904;6.136;2023-09-08T01:07:19;5.80;;;4.93;;
12567;SDS011;6349;50.904;6.136;2023-09-08T01:09:21;7.70;;;5.03;;
12567;SDS011;6349;50.904;6.136;2023-09-08T01:11:23;6.70;;;5.07;;
12567;SDS011;6349;50.904;6.136;2023-09-08T01:13:23;5.75;;;4.82;;
12567;SDS011;6349;50.904;6.136;2023-09-08T01:15:24;7.40;;;4.50;;
12567;SDS011;6349;50.904;6.136;2023-09-08T01:17:25;6.82;;;5.20;;
12567;SDS011;6349;50.904;6.136;2023-09-08T01:19:25;5.68;;;4.25;;
12567;SDS011;6349;50.904;6.136;2023-09-08T01:23:59;7.57;;;4.47;;
12567;SDS011;6349;50.904;6.136;2023-09-08T01:26:21;7.72;;;4.80;;
12567;SDS011;6349;50.904;6.136;2023-09-08T01:28:23;7.38;;;5.30;;
12567;SDS011;6349;50.904;6.136;2023-09-08T01:30:25;8.07;;;5.25;;
12567;SDS011;6349;50.904;6.136;2023-09-08T01:32:29;5.65;;;5.07;;
12567;SDS011;6349;50.904;6.136;2023-09-08T01:34:30;5.10;;;4.57;;
12567;SDS011;6349;50.904;6.136;2023-09-08T01:36:30;5.18;;;4.57;;
12567;SDS011;6349;50.904;6.136;2023-09-08T01:38:31;7.38;;;5.00;;
12567;SDS011;6349;50.904;6.136;2023-09-08T01:40:32;5.00;;;4.53;;
12567;SDS011;6349;50.904;6.136;2023-09-08T01:42:32;5.97;;;4.50;;
12567;SDS011;6349;50.904;6.136;2023-09-08T01:44:33;6.30;;;4.60;;
12567;SDS011;6349;50.904;6.136;2023-09-08T01:46:34;5.32;;;4.47;;
12567;SDS011;6349;50.904;6.136;2023-09-08T01:48:34;5.15;;;4.68;;
12567;SDS011;6349;50.904;6.136;2023-09-08T01:50:35;5.97;;;4.50;;
12567;SDS011;6349;50.904;6.136;2023-09-08T01:52:35;5.50;;;4.50;;
12567;SDS011;6349;50.904;6.136;2023-09-08T01:54:36;7.00;;;4.70;;
12567;SDS011;6349;50.904;6.136;2023-09-08T01:56:36;5.32;;;4.35;;
12567;SDS011;6349;50.904;6.136;2023-09-08T01:58:37;5.97;;;4.82;;
12567;SDS011;6349;50.904;6.136;2023-09-08T02:00:37;5.75;;;4.63;;
12567;SDS011;6349;50.904;6.136;2023-09-08T02:02:38;4.88;;;4.47;;
12567;SDS011;6349;50.904;6.136;2023-09-08T02:04:39;5.15;;;4.60;;
12567;SDS011;6349;50.904;6.136;2023-09-08T02:06:39;6.20;;;4.85;;
12567;SDS011;6349;50.904;6.136;2023-09-08T02:08:40;5.07;;;4.57;;
12567;SDS011;6349;50.904;6.136;2023-09-08T02:10:41;5.40;;;4.65;;
12567;SDS011;6349;50.904;6.136;2023-09-08T02:12:41;5.22;;;4.43;;
12567;SDS011;6349;50.904;6.136;2023-09-08T02:14:42;9.38;;;4.97;;
12567;SDS011;6349;50.904;6.136;2023-09-08T02:16:42;5.65;;;4.68;;
12567;SDS011;6349;50.904;6.136;2023-09-08T02:18:44;5.20;;;4.60;;
12567;SDS011;6349;50.904;6.136;2023-09-08T02:20:45;4.82;;;4.30;;
12567;SDS011;6349;50.904;6.136;2023-09-08T02:22:46;5.78;;;4.75;;
12567;SDS011;6349;50.904;6.136;2023-09-08T02:24:49;5.38;;;4.45;;
12567;SDS011;6349;50.904;6.136;2023-09-08T02:26:52;4.65;;;4.25;;
12567;SDS011;6349;50.904;6.136;2023-09-08T02:28:53;5.50;;;4.82;;
12567;SDS011;6349;50.904;6.136;2023-09-08T02:30:53;5.18;;;4.45;;
12567;SDS011;6349;50.904;6.136;2023-09-08T02:32:54;5.53;;;4.60;;
12567;SDS011;6349;50.904;6.136;2023-09-08T02:34:55;5.93;;;4.68;;
12567;SDS011;6349;50.904;6.136;2023-09-08T02:36:55;5.05;;;4.55;;
12567;SDS011;6349;50.904;6.136;2023-09-08T02:38:56;8.13;;;4.78;;
12567;SDS011;6349;50.904;6.136;2023-09-08T02:40:57;5.88;;;4.65;;
12567;SDS011;6349;50.904;6.136;2023-09-08T02:42:58;5.20;;;4.70;;
12567;SDS011;6349;50.904;6.136;2023-09-08T02:44:58;5.07;;;4.60;;
12567;SDS011;6349;50.904;6.136;2023-09-08T02:46:59;4.80;;;4.40;;
12567;SDS011;6349;50.904;6.136;2023-09-08T02:48:59;5.22;;;4.72;;
12567;SDS011;6349;50.904;6.136;2023-09-08T02:51:01;5.72;;;5.10;;
12567;SDS011;6349;50.904;6.136;2023-09-08T02:53:01;5.13;;;4.60;;
12567;SDS011;6349;50.904;6.136;2023-09-08T02:55:02;6.15;;;5.15;;
12567;SDS011;6349;50.904;6.136;2023-09-08T02:57:03;5.43;;;4.93;;
12567;SDS011;6349;50.904;6.136;2023-09-08T02:59:04;6.13;;;5.05;;
12567;SDS011;6349;50.904;6.136;2023-09-08T03:01:11;6.13;;;5.13;;
12567;SDS011;6349;50.904;6.136;2023-09-08T03:03:15;5.28;;;4.78;;
12567;SDS011;6349;50.904;6.136;2023-09-08T03:05:16;5.75;;;5.25;;
12567;SDS011;6349;50.904;6.136;2023-09-08T03:07:16;6.90;;;5.78;;
12567;SDS011;6349;50.904;6.136;2023-09-08T03:09:17;7.45;;;6.30;;
12567;SDS011;6349;50.904;6.136;2023-09-08T03:11:17;9.20;;;6.35;;
12567;SDS011;6349;50.904;6.136;2023-09-08T03:13:18;7.88;;;6.63;;
12567;SDS011;6349;50.904;6.136;2023-09-08T03:15:18;7.57;;;6.28;;
12567;SDS011;6349;50.904;6.136;2023-09-08T03:17:20;7.20;;;6.50;;
12567;SDS011;6349;50.904;6.136;2023-09-08T03:19:21;7.13;;;6.43;;
12567;SDS011;6349;50.904;6.136;2023-09-08T03:21:21;7.00;;;6.30;;
12567;SDS011;6349;50.904;6.136;2023-09-08T03:23:22;7.10;;;6.40;;
12567;SDS011;6349;50.904;6.136;2023-09-08T03:25:22;7.30;;;6.35;;
12567;SDS011;6349;50.904;6.136;2023-09-08T03:27:23;8.00;;;6.63;;
12567;SDS011;6349;50.904;6.136;2023-09-08T03:29:23;7.55;;;6.25;;
12567;SDS011;6349;50.904;6.136;2023-09-08T03:31:24;6.63;;;6.03;;
12567;SDS011;6349;50.904;6.136;2023-09-08T03:33:25;6.28;;;5.78;;
12567;SDS011;6349;50.904;6.136;2023-09-08T03:35:26;6.82;;;6.20;;
12567;SDS011;6349;50.904;6.136;2023-09-08T03:37:26;6.43;;;5.78;;
12567;SDS011;6349;50.904;6.136;2023-09-08T03:39:27;6.95;;;6.07;;
12567;SDS011;6349;50.904;6.136;2023-09-08T03:41:27;6.75;;;5.78;;
12567;SDS011;6349;50.904;6.136;2023-09-08T03:43:28;6.10;;;5.43;;
12567;SDS011;6349;50.904;6.136;2023-09-08T03:45:28;6.57;;;5.95;;
12567;SDS011;6349;50.904;6.136;2023-09-08T03:47:29;6.15;;;5.63;;
12567;SDS011;6349;50.904;6.136;2023-09-08T03:49:30;8.07;;;5.47;;
12567;SDS011;6349;50.904;6.136;2023-09-08T03:51:30;6.60;;;5.97;;
12567;SDS011;6349;50.904;6.136;2023-09-08T03:53:31;6.65;;;5.95;;
12567;SDS011;6349;50.904;6.136;2023-09-08T03:55:32;6.07;;;5.47;;
12567;SDS011;6349;50.904;6.136;2023-09-08T03:57:32;6.80;;;6.13;;
12567;SDS011;6349;50.904;6.136;2023-09-08T03:59:33;6.78;;;6.10;;
12567;SDS011;6349;50.904;6.136;2023-09-08T04:01:33;6.22;;;5.63;;
12567;SDS011;6349;50.904;6.136;2023-09-08T04:03:34;7.63;;;6.10;;
12567;SDS011;6349;50.904;6.136;2023-09-08T04:05:35;7.35;;;6.65;;
12567;SDS011;6349;50.904;6.136;2023-09-08T04:07:36;8.55;;;6.53;;
12567;SDS011;6349;50.904;6.136;2023-09-08T04:09:37;6.75;;;6.00;;
12567;SDS011;6349;50.904;6.136;2023-09-08T04:11:37;6.90;;;6.30;;
12567;SDS011;6349;50.904;6.136;2023-09-08T04:13:38;6.72;;;6.00;;
12567;SDS011;6349;50.904;6.136;2023-09-08T04:15:39;6.93;;;6.22;;
12567;SDS011;6349;50.904;6.136;2023-09-08T04:17:39;7.10;;;6.40;;
12567;SDS011;6349;50.904;6.136;2023-09-08T04:19:40;10.00;;;6.18;;
12567;SDS011;6349;50.904;6.136;2023-09-08T04:21:40;7.80;;;6.68;;
12567;SDS011;6349;50.904;6.136;2023-09-08T04:23:41;9.55;;;6.20;;
12567;SDS011;6349;50.904;6.136;2023-09-08T04:25:42;6.90;;;5.82;;
12567;SDS011;6349;50.904;6.136;2023-09-08T04:27:42;6.82;;;6.13;;
12567;SDS011;6349;50.904;6.136;2023-09-08T04:29:44;6.75;;;6.07;;
12567;SDS011;6349;50.904;6.136;2023-09-08T04:31:45;6.22;;;5.53;;
12567;SDS011;6349;50.904;6.136;2023-09-08T04:33:45;6.72;;;6.13;;
12567;SDS011;6349;50.904;6.136;2023-09-08T04:35:46;6.45;;;5.50;;
12567;SDS011;6349;50.904;6.136;2023-09-08T04:37:46;6.97;;;6.38;;
12567;SDS011;6349;50.904;6.136;2023-09-08T04:39:47;6.50;;;5.55;;
12567;SDS011;6349;50.904;6.136;2023-09-08T04:41:47;7.03;;;5.57;;
12567;SDS011;6349;50.904;6.136;2023-09-08T04:43:48;6.45;;;5.65;;
12567;SDS011;6349;50.904;6.136;2023-09-08T04:45:49;9.07;;;6.50;;
12567;SDS011;6349;50.904;6.136;2023-09-08T04:47:50;8.10;;;6.05;;
12567;SDS011;6349;50.904;6.136;2023-09-08T04:49:51;6.68;;;6.03;;
12567;SDS011;6349;50.904;6.136;2023-09-08T04:51:51;11.00;;;6.35;;
12567;SDS011;6349;50.904;6.136;2023-09-08T04:53:53;7.55;;;6.30;;
12567;SDS011;6349;50.904;6.136;2023-09-08T04:55:53;8.02;;;6.07;;
12567;SDS011;6349;50.904;6.136;2023-09-08T04:57:54;6.65;;;5.90;;
12567;SDS011;6349;50.904;6.136;2023-09-08T04:59:54;7.85;;;6.07;;
12567;SDS011;6349;50.904;6.136;2023-09-08T05:01:55;6.63;;;5.97;;
12567;SDS011;6349;50.904;6.136;2023-09-08T05:03:56;7.80;;;6.32;;
12567;SDS011;6349;50.904;6.136;2023-09-08T05:05:56;9.45;;;5.80;;
12567;SDS011;6349;50.904;6.136;2023-09-08T05:07:57;7.10;;;6.18;;
12567;SDS011;6349;50.904;6.136;2023-09-08T05:09:57;7.15;;;6.38;;
12567;SDS011;6349;50.904;6.136;2023-09-08T05:11:58;8.05;;;6.10;;
12567;SDS011;6349;50.904;6.136;2023-09-08T05:14:00;8.52;;;7.40;;
12567;SDS011;6349;50.904;6.136;2023-09-08T05:16:00;10.15;;;7.97;;
12567;SDS011;6349;50.904;6.136;2023-09-08T05:18:10;10.05;;;8.35;;
12567;SDS011;6349;50.904;6.136;2023-09-08T05:20:11;11.95;;;9.43;;
12567;SDS011;6349;50.904;6.136;2023-09-08T05:22:12;11.02;;;8.45;;
12567;SDS011;6349;50.904;6.136;2023-09-08T05:24:12;9.73;;;8.40;;
12567;SDS011;6349;50.904;6.136;2023-09-08T05:26:13;11.07;;;7.88;;
12567;SDS011;6349;50.904;6.136;2023-09-08T05:28:13;9.43;;;7.60;;
12567;SDS011;6349;50.904;6.136;2023-09-08T05:30:14;9.90;;;7.28;;
12567;SDS011;6349;50.904;6.136;2023-09-08T05:32:14;8.57;;;7.10;;
12567;SDS011;6349;50.904;6.136;2023-09-08T05:34:15;11.40;;;7.57;;
12567;SDS011;6349;50.904;6.136;2023-09-08T05:36:15;8.95;;;7.43;;
12567;SDS011;6349;50.904;6.136;2023-09-08T05:38:16;9.95;;;7.85;;
12567;SDS011;6349;50.904;6.136;2023-09-08T05:40:16;10.73;;;7.30;;
12567;SDS011;6349;50.904;6.136;2023-09-08T05:42:18;11.05;;;7.82;;
12567;SDS011;6349;50.904;6.136;2023-09-08T05:44:19;7.70;;;6.90;;
12567;SDS011;6349;50.904;6.136;2023-09-08T05:46:20;12.45;;;7.93;;
12567;SDS011;6349;50.904;6.136;2023-09-08T05:48:20;9.52;;;7.25;;
12567;SDS011;6349;50.904;6.136;2023-09-08T05:50:21;8.75;;;6.63;;
12567;SDS011;6349;50.904;6.136;2023-09-08T05:52:21;7.43;;;6.50;;
12567;SDS011;6349;50.904;6.136;2023-09-08T05:54:22;8.07;;;6.20;;
12567;SDS011;6349;50.904;6.136;2023-09-08T05:56:24;10.70;;;6.47;;
12567;SDS011;6349;50.904;6.136;2023-09-08T05:58:30;7.47;;;6.68;;
12567;SDS011;6349;50.904;6.136;2023-09-08T06:00:31;7.15;;;6.15;;
12567;SDS011;6349;50.904;6.136;2023-09-08T06:02:31;9.75;;;6.20;;
12567;SDS011;6349;50.904;6.136;2023-09-08T06:04:32;9.77;;;6.47;;
12567;SDS011;6349;50.904;6.136;2023-09-08T06:06:33;9.27;;;6.05;;
12567;SDS011;6349;50.904;6.136;2023-09-08T06:08:33;9.27;;;6.25;;
12567;SDS011;6349;50.904;6.136;2023-09-08T06:10:34;6.95;;;5.82;;
12567;SDS011;6349;50.904;6.136;2023-09-08T06:12:35;7.97;;;5.57;;
12567;SDS011;6349;50.904;6.136;2023-09-08T06:14:35;6.50;;;5.70;;
12567;SDS011;6349;50.904;6.136;2023-09-08T06:16:36;11.65;;;6.05;;
12567;SDS011;6349;50.904;6.136;2023-09-08T06:18:37;7.50;;;5.93;;
12567;SDS011;6349;50.904;6.136;2023-09-08T06:20:44;7.60;;;5.82;;
12567;SDS011;6349;50.904;6.136;2023-09-08T06:22:48;8.80;;;5.65;;
12567;SDS011;6349;50.904;6.136;2023-09-08T06:24:49;6.15;;;5.55;;
12567;SDS011;6349;50.904;6.136;2023-09-08T06:26:50;6.45;;;5.70;;
12567;SDS011;6349;50.904;6.136;2023-09-08T06:28:50;7.45;;;5.22;;
12567;SDS011;6349;50.904;6.136;2023-09-08T06:30:51;8.05;;;5.93;;
12567;SDS011;6349;50.904;6.136;2023-09-08T06:32:51;7.97;;;5.78;;
12567;SDS011;6349;50.904;6.136;2023-09-08T06:34:52;7.30;;;5.78;;
12567;SDS011;6349;50.904;6.136;2023-09-08T06:36:52;9.20;;;5.90;;
12567;SDS011;6349;50.904;6.136;2023-09-08T06:38:53;10.32;;;6.20;;
12567;SDS011;6349;50.904;6.136;2023-09-08T06:40:53;12.20;;;6.97;;
12567;SDS011;6349;50.904;6.136;2023-09-08T06:42:54;9.90;;;6.43;;
12567;SDS011;6349;50.904;6.136;2023-09-08T06:44:55;7.32;;;6.40;;
12567;SDS011;6349;50.904;6.136;2023-09-08T06:46:56;10.73;;;6.65;;
12567;SDS011;6349;50.904;6.136;2023-09-08T06:48:56;7.82;;;6.43;;
12567;SDS011;6349;50.904;6.136;2023-09-08T06:50:57;8.90;;;7.15;;
12567;SDS011;6349;50.904;6.136;2023-09-08T06:52:57;9.48;;;6.68;;
12567;SDS011;6349;50.904;6.136;2023-09-08T06:54:59;7.05;;;6.25;;
12567;SDS011;6349;50.904;6.136;2023-09-08T06:56:59;9.68;;;6.57;;
12567;SDS011;6349;50.904;6.136;2023-09-08T06:59:00;9.52;;;6.90;;
12567;SDS011;6349;50.904;6.136;2023-09-08T07:01:00;9.77;;;6.28;;
12567;SDS011;6349;50.904;6.136;2023-09-08T07:03:01;8.05;;;5.97;;
12567;SDS011;6349;50.904;6.136;2023-09-08T07:05:02;7.63;;;6.18;;
12567;SDS011;6349;50.904;6.136;2023-09-08T07:07:07;7.47;;;6.53;;
12567;SDS011;6349;50.904;6.136;2023-09-08T07:09:08;9.05;;;6.57;;
12567;SDS011;6349;50.904;6.136;2023-09-08T07:11:09;9.70;;;6.70;;
12567;SDS011;6349;50.904;6.136;2023-09-08T07:13:10;8.00;;;6.05;;
12567;SDS011;6349;50.904;6.136;2023-09-08T07:15:10;14.98;;;6.47;;
12567;SDS011;6349;50.904;6.136;2023-09-08T07:17:11;9.80;;;6.35;;
12567;SDS011;6349;50.904;6.136;2023-09-08T07:19:11;11.55;;;6.63;;
12567;SDS011;6349;50.904;6.136;2023-09-08T07:21:12;9.93;;;6.35;;
12567;SDS011;6349;50.904;6.136;2023-09-08T07:23:12;7.85;;;5.85;;
12567;SDS011;6349;50.904;6.136;2023-09-08T07:25:13;8.65;;;6.78;;
12567;SDS011;6349;50.904;6.136;2023-09-08T07:27:14;6.75;;;5.63;;
12567;SDS011;6349;50.904;6.136;2023-09-08T07:29:14;6.60;;;5.30;;
12567;SDS011;6349;50.904;6.136;2023-09-08T07:31:15;6.97;;;5.82;;
12567;SDS011;6349;50.904;6.136;2023-09-08T07:33:16;7.97;;;5.93;;
12567;SDS011;6349;50.904;6.136;2023-09-08T07:35:16;8.38;;;5.75;;
12567;SDS011;6349;50.904;6.136;2023-09-08T07:37:19;5.30;;;4.80;;
12567;SDS011;6349;50.904;6.136;2023-09-08T07:39:19;8.13;;;5.82;;
12567;SDS011;6349;50.904;6.136;2023-09-08T07:41:20;7.20;;;5.72;;
12567;SDS011;6349;50.904;6.136;2023-09-08T07:43:20;6.15;;;5.55;;
12567;SDS011;6349;50.904;6.136;2023-09-08T07:45:21;5.90;;;5.22;;
12567;SDS011;6349;50.904;6.136;2023-09-08T07:47:22;8.40;;;5.50;;
12567;SDS011;6349;50.904;6.136;2023-09-08T07:49:23;6.60;;;5.70;;
12567;SDS011;6349;50.904;6.136;2023-09-08T07:51:24;7.93;;;5.43;;
12567;SDS011;6349;50.904;6.136;2023-09-08T07:53:25;6.05;;;5.25;;
12567;SDS011;6349;50.904;6.136;2023-09-08T07:55:26;7.25;;;5.40;;
12567;SDS011;6349;50.904;6.136;2023-09-08T07:57:29;7.82;;;5.30;;
12567;SDS011;6349;50.904;6.136;2023-09-08T07:59:30;12.75;;;5.80;;
12567;SDS011;6349;50.904;6.136;2023-09-08T08:01:31;8.70;;;6.10;;
12567;SDS011;6349;50.904;6.136;2023-09-08T08:03:32;8.30;;;5.93;;
12567;SDS011;6349;50.904;6.136;2023-09-08T08:05:34;6.82;;;5.45;;
12567;SDS011;6349;50.904;6.136;2023-09-08T08:07:35;7.55;;;5.47;;
12567;SDS011;6349;50.904;6.136;2023-09-08T08:09:36;7.88;;;5.65;;
12567;SDS011;6349;50.904;6.136;2023-09-08T08:11:36;10.13;;;5.55;;
12567;SDS011;6349;50.904;6.136;2023-09-08T08:13:37;6.20;;;5.05;;
12567;SDS011;6349;50.904;6.136;2023-09-08T08:15:39;6.82;;;4.88;;
12567;SDS011;6349;50.904;6.136;2023-09-08T08:17:42;7.13;;;4.90;;
12567;SDS011;6349;50.904;6.136;2023-09-08T08:19:42;6.13;;;4.75;;
12567;SDS011;6349;50.904;6.136;2023-09-08T08:21:43;6.20;;;4.70;;
12567;SDS011;6349;50.904;6.136;2023-09-08T08:23:44;6.40;;;4.50;;
12567;SDS011;6349;50.904;6.136;2023-09-08T08:25:45;6.82;;;4.57;;
12567;SDS011;6349;50.904;6.136;2023-09-08T08:27:45;5.28;;;4.25;;
12567;SDS011;6349;50.904;6.136;2023-09-08T08:29:46;7.13;;;5.00;;
12567;SDS011;6349;50.904;6.136;2023-09-08T08:31:46;6.38;;;4.30;;
12567;SDS011;6349;50.904;6.136;2023-09-08T08:33:47;6.60;;;4.68;;
12567;SDS011;6349;50.904;6.136;2023-09-08T08:35:51;4.93;;;4.25;;
12567;SDS011;6349;50.904;6.136;2023-09-08T08:37:52;4.57;;;4.18;;
12567;SDS011;6349;50.904;6.136;2023-09-08T08:39:52;4.82;;;4.38;;
12567;SDS011;6349;50.904;6.136;2023-09-08T08:41:53;6.45;;;4.50;;
12567;SDS011;6349;50.904;6.136;2023-09-08T08:43:54;4.60;;;4.20;;
12567;SDS011;6349;50.904;6.136;2023-09-08T08:45:55;6.60;;;4.47;;
12567;SDS011;6349;50.904;6.136;2023-09-08T08:47:58;5.55;;;4.70;;
12567;SDS011;6349;50.904;6.136;2023-09-08T08:50:01;6.32;;;4.50;;
12567;SDS011;6349;50.904;6.136;2023-09-08T08:52:03;4.50;;;4.10;;
12567;SDS011;6349;50.904;6.136;2023-09-08T08:54:07;4.43;;;4.03;;
12567;SDS011;6349;50.904;6.136;2023-09-08T08:56:08;6.70;;;4.63;;
12567;SDS011;6349;50.904;6.136;2023-09-08T08:58:10;5.20;;;4.57;;
12567;SDS011;6349;50.904;6.136;2023-09-08T09:00:11;5.05;;;3.72;;
12567;SDS011;6349;50.904;6.136;2023-09-08T09:02:12;4.72;;;4.25;;
12567;SDS011;6349;50.904;6.136;2023-09-08T09:04:14;4.85;;;4.38;;
12567;SDS011;6349;50.904;6.136;2023-09-08T09:06:16;8.40;;;5.05;;
12567;SDS011;6349;50.904;6.136;2023-09-08T09:08:17;10.02;;;4.35;;
12567;SDS011;6349;50.904;6.136;2023-09-08T09:10:19;4.80;;;4.38;;
12567;SDS011;6349;50.904;6.136;2023-09-08T09:12:19;5.15;;;4.32;;
12567;SDS011;6349;50.904;6.136;2023-09-08T09:14:22;5.68;;;4.20;;
12567;SDS011;6349;50.904;6.136;2023-09-08T09:16:23;5.88;;;4.30;;
12567;SDS011;6349;50.904;6.136;2023-09-08T09:18:24;6.97;;;4.03;;
12567;SDS011;6349;50.904;6.136;2023-09-08T09:20:24;4.60;;;4.20;;
12567;SDS011;6349;50.904;6.136;2023-09-08T09:22:25;6.00;;;4.03;;
12567;SDS011;6349;50.904;6.136;2023-09-08T09:24:40;6.45;;;4.40;;
12567;SDS011;6349;50.904;6.136;2023-09-08T09:26:43;7.05;;;4.80;;
12567;SDS011;6349;50.904;6.136;2023-09-08T09:28:47;5.57;;;4.28;;
12567;SDS011;6349;50.904;6.136;2023-09-08T09:30:49;6.00;;;4.07;;
12567;SDS011;6349;50.904;6.136;2023-09-08T09:32:58;5.07;;;4.20;;
12567;SDS011;6349;50.904;6.136;2023-09-08T09:35:02;5.07;;;4.45;;
12567;SDS011;6349;50.904;6.136;2023-09-08T09:37:03;6.53;;;4.35;;
12567;SDS011;6349;50.904;6.136;2023-09-08T09:39:05;5.85;;;4.03;;
12567;SDS011;6349;50.904;6.136;2023-09-08T09:41:05;5.03;;;4.50;;
12567;SDS011;6349;50.904;6.136;2023-09-08T09:43:06;4.55;;;4.10;;
12567;SDS011;6349;50.904;6.136;2023-09-08T09:45:07;4.68;;;4.00;;
12567;SDS011;6349;50.904;6.136;2023-09-08T09:47:09;4.40;;;4.00;;
12567;SDS011;6349;50.904;6.136;2023-09-08T09:49:14;5.10;;;4.10;;
12567;SDS011;6349;50.904;6.136;2023-09-08T09:51:19;6.18;;;4.38;;
12567;SDS011;6349;50.904;6.136;2023-09-08T09:53:20;5.40;;;4.07;;
12567;SDS011;6349;50.904;6.136;2023-09-08T09:55:21;4.57;;;4.15;;
12567;SDS011;6349;50.904;6.136;2023-09-08T09:57:22;5.35;;;3.75;;
12567;SDS011;6349;50.904;6.136;2023-09-08T09:59:23;4.82;;;3.88;;
12567;SDS011;6349;50.904;6.136;2023-09-08T10:01:24;4.10;;;3.80;;
12567;SDS011;6349;50.904;6.136;2023-09-08T10:03:25;4.22;;;3.83;;
12567;SDS011;6349;50.904;6.136;2023-09-08T10:05:26;7.65;;;4.10;;
12567;SDS011;6349;50.904;6.136;2023-09-08T10:07:27;6.03;;;4.35;;
12567;SDS011;6349;50.904;6.136;2023-09-08T10:09:28;4.70;;;4.20;;
12567;SDS011;6349;50.904;6.136;2023-09-08T10:11:29;4.65;;;3.90;;
12567;SDS011;6349;50.904;6.136;2023-09-08T10:13:37;5.90;;;4.25;;
12567;SDS011;6349;50.904;6.136;2023-09-08T10:15:42;5.45;;;4.32;;
12567;SDS011;6349;50.904;6.136;2023-09-08T10:17:44;4.60;;;4.20;;
12567;SDS011;6349;50.904;6.136;2023-09-08T10:19:47;7.30;;;3.92;;
12567;SDS011;6349;50.904;6.136;2023-09-08T10:21:51;5.57;;;4.10;;
12567;SDS011;6349;50.904;6.136;2023-09-08T10:23:59;5.32;;;4.00;;
12567;SDS011;6349;50.904;6.136;2023-09-08T10:26:09;5.70;;;4.20;;
12567;SDS011;6349;50.904;6.136;2023-09-08T10:28:12;5.60;;;4.20;;
12567;SDS011;6349;50.904;6.136;2023-09-08T10:30:12;4.93;;;3.75;;
12567;SDS011;6349;50.904;6.136;2023-09-08T10:32:14;5.57;;;4.03;;
12567;SDS011;6349;50.904;6.136;2023-09-08T10:34:18;6.50;;;4.00;;
12567;SDS011;6349;50.904;6.136;2023-09-08T10:36:19;4.65;;;4.22;;
12567;SDS011;6349;50.904;6.136;2023-09-08T10:38:30;8.30;;;4.35;;
12567;SDS011;6349;50.904;6.136;2023-09-08T10:40:32;4.75;;;4.35;;
12567;SDS011;6349;50.904;6.136;2023-09-08T10:42:33;5.30;;;4.30;;
12567;SDS011;6349;50.904;6.136;2023-09-08T10:44:34;4.40;;;4.10;;
12567;SDS011;6349;50.904;6.136;2023-09-08T10:46:34;6.28;;;4.18;;
12567;SDS011;6349;50.904;6.136;2023-09-08T10:48:41;4.47;;;4.07;;
12567;SDS011;6349;50.904;6.136;2023-09-08T10:50:43;4.68;;;4.28;;
12567;SDS011;6349;50.904;6.136;2023-09-08T10:52:44;5.40;;;4.30;;
12567;SDS011;6349;50.904;6.136;2023-09-08T10:54:49;4.45;;;3.95;;
12567;SDS011;6349;50.904;6.136;2023-09-08T10:56:55;5.57;;;4.10;;
12567;SDS011;6349;50.904;6.136;2023-09-08T10:58:58;5.07;;;4.38;;
12567;SDS011;6349;50.904;6.136;2023-09-08T11:01:00;7.93;;;4.22;;
12567;SDS011;6349;50.904;6.136;2023-09-08T11:03:02;5.25;;;4.55;;
12567;SDS011;6349;50.904;6.136;2023-09-08T11:05:06;4.95;;;4.55;;
12567;SDS011;6349;50.904;6.136;2023-09-08T11:07:13;5.85;;;4.55;;
12567;SDS011;6349;50.904;6.136;2023-09-08T11:09:14;4.63;;;4.22;;
12567;SDS011;6349;50.904;6.136;2023-09-08T11:11:16;5.00;;;4.22;;
12567;SDS011;6349;50.904;6.136;2023-09-08T11:13:17;5.57;;;4.00;;
12567;SDS011;6349;50.904;6.136;2023-09-08T11:15:17;4.65;;;4.25;;
12567;SDS011;6349;50.904;6.136;2023-09-08T11:17:20;4.65;;;4.18;;
12567;SDS011;6349;50.904;6.136;2023-09-08T11:19:24;5.68;;;4.18;;
12567;SDS011;6349;50.904;6.136;2023-09-08T11:21:42;4.90;;;4.40;;
12567;SDS011;6349;50.904;6.136;2023-09-08T11:23:43;5.70;;;4.25;;
12567;SDS011;6349;50.904;6.136;2023-09-08T11:25:44;5.97;;;4.50;;
12567;SDS011;6349;50.904;6.136;2023-09-08T11:27:44;4.70;;;4.30;;
12567;SDS011;6349;50.904;6.136;2023-09-08T11:29:47;4.38;;;4.07;;
12567;SDS011;6349;50.904;6.136;2023-09-08T11:31:51;5.60;;;4.03;;
12567;SDS011;6349;50.904;6.136;2023-09-08T11:33:54;5.05;;;4.22;;
12567;SDS011;6349;50.904;6.136;2023-09-08T11:35:55;5.72;;;4.50;;
12567;SDS011;6349;50.904;6.136;2023-09-08T11:37:58;5.10;;;4.68;;
12567;SDS011;6349;50.904;6.136;2023-09-08T11:40:00;5.30;;;4.55;;
12567;SDS011;6349;50.904;6.136;2023-09-08T11:42:01;5.03;;;4.50;;
12567;SDS011;6349;50.904;6.136;2023-09-08T11:44:02;6.70;;;4.70;;
12567;SDS011;6349;50.904;6.136;2023-09-08T11:46:04;5.43;;;4.38;;
12567;SDS011;6349;50.904;6.136;2023-09-08T11:48:05;4.35;;;3.95;;
12567;SDS011;6349;50.904;6.136;2023-09-08T11:50:06;5.15;;;4.32;;
12567;SDS011;6349;50.904;6.136;2023-09-08T11:52:08;6.35;;;4.30;;
12567;SDS011;6349;50.904;6.136;2023-09-08T11:54:09;4.43;;;4.03;;
12567;SDS011;6349;50.904;6.136;2023-09-08T11:56:09;4.65;;;4.15;;
12567;SDS011;6349;50.904;6.136;2023-09-08T11:58:10;6.15;;;4.28;;
12567;SDS011;6349;50.904;6.136;2023-09-08T12:00:11;5.75;;;4.20;;
12567;SDS011;6349;50.904;6.136;2023-09-08T12:02:17;6.05;;;4.50;;
12567;SDS011;6349;50.904;6.136;2023-09-08T12:04:18;5.25;;;4.20;;
12567;SDS011;6349;50.904;6.136;2023-09-08T12:06:23;10.13;;;5.05;;
12567;SDS011;6349;50.904;6.136;2023-09-08T12:08:25;6.10;;;4.30;;
12567;SDS011;6349;50.904;6.136;2023-09-08T12:10:27;4.78;;;4.20;;
12567;SDS011;6349;50.904;6.136;2023-09-08T12:12:27;3.97;;;3.58;;
12567;SDS011;6349;50.904;6.136;2023-09-08T12:14:28;4.18;;;3.58;;
12567;SDS011;6349;50.904;6.136;2023-09-08T12:16:28;4.75;;;4.20;;
12567;SDS011;6349;50.904;6.136;2023-09-08T12:18:39;4.93;;;4.30;;
12567;SDS011;6349;50.904;6.136;2023-09-08T12:20:40;4.40;;;4.00;;
12567;SDS011;6349;50.904;6.136;2023-09-08T12:22:47;4.38;;;3.97;;
12567;SDS011;6349;50.904;6.136;2023-09-08T12:24:55;4.88;;;4.40;;